sensor_id;sensor_type;location;lat;lon;timestamp;P1;durP1;ratioP1;P2;durP2;ratioP2
44822;SDS011;51097;51.984;5.650;2023-04-06T00:01:37;12.70;;;9.07;;
44822;SDS011;51097;51.984;5.650;2023-04-06T00:04:03;13.68;;;9.80;;
44822;SDS011;51097;51.984;5.650;2023-04-06T00:06:29;15.73;;;10.30;;
44822;SDS011;51097;51.984;5.650;2023-04-06T00:08:55;13.70;;;9.95;;
44822;SDS011;51097;51.984;5.650;2023-04-06T00:11:20;12.93;;;9.80;;
44822;SDS011;51097;51.984;5.650;2023-04-06T00:13:46;15.45;;;8.93;;
44822;SDS011;51097;51.984;5.650;2023-04-06T00:16:12;17.05;;;9.80;;
44822;SDS011;51097;51.984;5.650;2023-04-06T00:18:37;12.93;;;10.00;;
44822;SDS011;51097;51.984;5.650;2023-04-06T00:21:03;15.63;;;10.57;;
44822;SDS011;51097;51.984;5.650;2023-04-06T00:23:29;12.90;;;9.13;;
44822;SDS011;51097;51.984;5.650;2023-04-06T00:25:54;13.40;;;9.57;;
44822;SDS011;51097;51.984;5.650;2023-04-06T00:28:20;13.15;;;9.65;;
44822;SDS011;51097;51.984;5.650;2023-04-06T00:30:50;13.57;;;8.32;;
44822;SDS011;51097;51.984;5.650;2023-04-06T00:33:17;15.23;;;9.32;;
44822;SDS011;51097;51.984;5.650;2023-04-06T00:35:43;15.57;;;10.30;;
44822;SDS011;51097;51.984;5.650;2023-04-06T00:38:09;13.85;;;9.60;;
44822;SDS011;51097;51.984;5.650;2023-04-06T00:40:35;14.93;;;10.65;;
44822;SDS011;51097;51.984;5.650;2023-04-06T00:43:00;10.80;;;8.07;;
44822;SDS011;51097;51.984;5.650;2023-04-06T00:45:26;13.18;;;9.02;;
44822;SDS011;51097;51.984;5.650;2023-04-06T00:47:52;10.75;;;9.32;;
44822;SDS011;51097;51.984;5.650;2023-04-06T00:50:17;10.82;;;7.85;;
44822;SDS011;51097;51.984;5.650;2023-04-06T00:52:43;13.38;;;8.82;;
44822;SDS011;51097;51.984;5.650;2023-04-06T00:55:08;11.32;;;8.60;;
44822;SDS011;51097;51.984;5.650;2023-04-06T00:57:34;12.73;;;8.65;;
44822;SDS011;51097;51.984;5.650;2023-04-06T01:00:00;13.82;;;8.77;;
44822;SDS011;51097;51.984;5.650;2023-04-06T01:02:26;13.38;;;8.43;;
44822;SDS011;51097;51.984;5.650;2023-04-06T01:04:52;14.00;;;8.32;;
44822;SDS011;51097;51.984;5.650;2023-04-06T01:07:19;11.95;;;8.73;;
44822;SDS011;51097;51.984;5.650;2023-04-06T01:09:44;10.50;;;8.02;;
44822;SDS011;51097;51.984;5.650;2023-04-06T01:12:10;13.52;;;8.98;;
44822;SDS011;51097;51.984;5.650;2023-04-06T01:14:35;12.80;;;9.82;;
44822;SDS011;51097;51.984;5.650;2023-04-06T01:17:01;15.07;;;9.82;;
44822;SDS011;51097;51.984;5.650;2023-04-06T01:19:27;16.13;;;9.73;;
44822;SDS011;51097;51.984;5.650;2023-04-06T01:21:53;12.35;;;8.55;;
44822;SDS011;51097;51.984;5.650;2023-04-06T01:24:19;16.08;;;9.10;;
44822;SDS011;51097;51.984;5.650;2023-04-06T01:26:45;13.60;;;9.80;;
44822;SDS011;51097;51.984;5.650;2023-04-06T01:29:11;18.10;;;9.85;;
44822;SDS011;51097;51.984;5.650;2023-04-06T01:31:37;18.05;;;10.68;;
44822;SDS011;51097;51.984;5.650;2023-04-06T01:34:03;12.25;;;10.02;;
44822;SDS011;51097;51.984;5.650;2023-04-06T01:36:29;16.92;;;10.02;;
44822;SDS011;51097;51.984;5.650;2023-04-06T01:38:56;13.65;;;10.48;;
44822;SDS011;51097;51.984;5.650;2023-04-06T01:41:21;17.83;;;11.10;;
44822;SDS011;51097;51.984;5.650;2023-04-06T01:43:47;13.52;;;10.38;;
44822;SDS011;51097;51.984;5.650;2023-04-06T01:46:13;18.20;;;11.52;;
44822;SDS011;51097;51.984;5.650;2023-04-06T01:48:39;15.02;;;9.93;;
44822;SDS011;51097;51.984;5.650;2023-04-06T01:51:05;16.38;;;11.40;;
44822;SDS011;51097;51.984;5.650;2023-04-06T01:53:31;14.15;;;10.02;;
44822;SDS011;51097;51.984;5.650;2023-04-06T01:55:56;14.98;;;10.60;;
44822;SDS011;51097;51.984;5.650;2023-04-06T01:58:22;15.18;;;10.43;;
44822;SDS011;51097;51.984;5.650;2023-04-06T02:00:47;14.65;;;9.40;;
44822;SDS011;51097;51.984;5.650;2023-04-06T02:03:13;15.85;;;9.65;;
44822;SDS011;51097;51.984;5.650;2023-04-06T02:05:39;15.73;;;10.05;;
44822;SDS011;51097;51.984;5.650;2023-04-06T02:08:05;13.05;;;10.23;;
44822;SDS011;51097;51.984;5.650;2023-04-06T02:10:31;15.70;;;10.30;;
44822;SDS011;51097;51.984;5.650;2023-04-06T02:12:58;15.35;;;10.23;;
44822;SDS011;51097;51.984;5.650;2023-04-06T02:15:23;14.70;;;9.35;;
44822;SDS011;51097;51.984;5.650;2023-04-06T02:17:50;14.07;;;9.15;;
44822;SDS011;51097;51.984;5.650;2023-04-06T02:20:16;15.95;;;10.00;;
44822;SDS011;51097;51.984;5.650;2023-04-06T02:22:42;14.90;;;8.32;;
44822;SDS011;51097;51.984;5.650;2023-04-06T02:25:07;16.40;;;9.60;;
44822;SDS011;51097;51.984;5.650;2023-04-06T02:27:33;15.73;;;9.43;;
44822;SDS011;51097;51.984;5.650;2023-04-06T02:29:59;14.80;;;8.90;;
44822;SDS011;51097;51.984;5.650;2023-04-06T02:32:25;11.82;;;8.32;;
44822;SDS011;51097;51.984;5.650;2023-04-06T02:34:50;14.82;;;10.50;;
44822;SDS011;51097;51.984;5.650;2023-04-06T02:37:16;12.30;;;8.98;;
44822;SDS011;51097;51.984;5.650;2023-04-06T02:39:41;13.77;;;9.68;;
44822;SDS011;51097;51.984;5.650;2023-04-06T02:42:07;15.43;;;9.10;;
44822;SDS011;51097;51.984;5.650;2023-04-06T02:44:33;16.20;;;11.25;;
44822;SDS011;51097;51.984;5.650;2023-04-06T02:46:59;13.68;;;9.85;;
44822;SDS011;51097;51.984;5.650;2023-04-06T02:49:24;12.57;;;8.63;;
44822;SDS011;51097;51.984;5.650;2023-04-06T02:51:50;14.00;;;9.05;;
44822;SDS011;51097;51.984;5.650;2023-04-06T02:54:15;15.80;;;10.52;;
44822;SDS011;51097;51.984;5.650;2023-04-06T02:56:41;14.07;;;10.10;;
44822;SDS011;51097;51.984;5.650;2023-04-06T02:59:06;14.60;;;9.65;;
44822;SDS011;51097;51.984;5.650;2023-04-06T03:01:32;14.32;;;9.50;;
44822;SDS011;51097;51.984;5.650;2023-04-06T03:03:57;14.32;;;8.75;;
44822;SDS011;51097;51.984;5.650;2023-04-06T03:06:23;12.77;;;8.63;;
44822;SDS011;51097;51.984;5.650;2023-04-06T03:08:49;12.13;;;8.95;;
44822;SDS011;51097;51.984;5.650;2023-04-06T03:11:15;16.23;;;10.05;;
44822;SDS011;51097;51.984;5.650;2023-04-06T03:13:40;12.40;;;9.80;;
44822;SDS011;51097;51.984;5.650;2023-04-06T03:16:06;13.23;;;9.95;;
44822;SDS011;51097;51.984;5.650;2023-04-06T03:18:32;14.35;;;9.50;;
44822;SDS011;51097;51.984;5.650;2023-04-06T03:20:57;14.25;;;10.00;;
44822;SDS011;51097;51.984;5.650;2023-04-06T03:23:25;13.55;;;9.57;;
44822;SDS011;51097;51.984;5.650;2023-04-06T03:25:50;13.52;;;10.48;;
44822;SDS011;51097;51.984;5.650;2023-04-06T03:28:16;15.55;;;10.27;;
44822;SDS011;51097;51.984;5.650;2023-04-06T03:30:42;16.30;;;9.95;;
44822;SDS011;51097;51.984;5.650;2023-04-06T03:33:07;16.65;;;10.45;;
44822;SDS011;51097;51.984;5.650;2023-04-06T03:35:33;14.20;;;9.30;;
44822;SDS011;51097;51.984;5.650;2023-04-06T03:37:58;14.32;;;10.10;;
44822;SDS011;51097;51.984;5.650;2023-04-06T03:40:24;13.82;;;9.27;;
44822;SDS011;51097;51.984;5.650;2023-04-06T03:42:50;12.15;;;9.02;;
44822;SDS011;51097;51.984;5.650;2023-04-06T03:45:15;16.42;;;9.57;;
44822;SDS011;51097;51.984;5.650;2023-04-06T03:47:41;20.00;;;10.07;;
44822;SDS011;51097;51.984;5.650;2023-04-06T03:50:07;13.80;;;9.85;;
44822;SDS011;51097;51.984;5.650;2023-04-06T03:52:34;16.33;;;10.50;;
44822;SDS011;51097;51.984;5.650;2023-04-06T03:55:00;15.57;;;9.75;;
44822;SDS011;51097;51.984;5.650;2023-04-06T03:57:26;15.57;;;10.60;;
44822;SDS011;51097;51.984;5.650;2023-04-06T03:59:51;15.23;;;9.75;;
44822;SDS011;51097;51.984;5.650;2023-04-06T04:02:17;13.32;;;9.75;;
44822;SDS011;51097;51.984;5.650;2023-04-06T04:04:42;14.25;;;10.52;;
44822;SDS011;51097;51.984;5.650;2023-04-06T04:07:08;16.00;;;11.27;;
44822;SDS011;51097;51.984;5.650;2023-04-06T04:09:33;14.93;;;10.52;;
44822;SDS011;51097;51.984;5.650;2023-04-06T04:11:59;17.40;;;11.93;;
44822;SDS011;51097;51.984;5.650;2023-04-06T04:14:25;15.02;;;10.45;;
44822;SDS011;51097;51.984;5.650;2023-04-06T04:16:50;17.15;;;10.40;;
44822;SDS011;51097;51.984;5.650;2023-04-06T04:19:16;18.48;;;11.95;;
44822;SDS011;51097;51.984;5.650;2023-04-06T04:21:45;16.75;;;11.45;;
44822;SDS011;51097;51.984;5.650;2023-04-06T04:24:11;18.27;;;12.18;;
44822;SDS011;51097;51.984;5.650;2023-04-06T04:26:37;16.65;;;10.95;;
44822;SDS011;51097;51.984;5.650;2023-04-06T04:29:04;16.63;;;11.07;;
44822;SDS011;51097;51.984;5.650;2023-04-06T04:31:30;18.55;;;11.57;;
44822;SDS011;51097;51.984;5.650;2023-04-06T04:33:55;17.80;;;11.23;;
44822;SDS011;51097;51.984;5.650;2023-04-06T04:36:21;17.55;;;11.18;;
44822;SDS011;51097;51.984;5.650;2023-04-06T04:38:48;18.33;;;11.57;;
44822;SDS011;51097;51.984;5.650;2023-04-06T04:41:13;20.77;;;11.52;;
44822;SDS011;51097;51.984;5.650;2023-04-06T04:43:39;18.13;;;12.27;;
44822;SDS011;51097;51.984;5.650;2023-04-06T04:46:04;15.50;;;12.20;;
44822;SDS011;51097;51.984;5.650;2023-04-06T04:48:30;17.13;;;11.75;;
44822;SDS011;51097;51.984;5.650;2023-04-06T04:50:55;18.73;;;12.18;;
44822;SDS011;51097;51.984;5.650;2023-04-06T04:53:21;21.60;;;12.40;;
44822;SDS011;51097;51.984;5.650;2023-04-06T04:55:47;19.25;;;12.23;;
44822;SDS011;51097;51.984;5.650;2023-04-06T04:58:12;18.67;;;12.05;;
44822;SDS011;51097;51.984;5.650;2023-04-06T05:00:44;19.02;;;11.18;;
44822;SDS011;51097;51.984;5.650;2023-04-06T05:03:15;19.88;;;13.02;;
44822;SDS011;51097;51.984;5.650;2023-04-06T05:05:47;21.35;;;12.75;;
44822;SDS011;51097;51.984;5.650;2023-04-06T05:08:12;19.55;;;12.95;;
44822;SDS011;51097;51.984;5.650;2023-04-06T05:10:38;18.67;;;12.52;;
44822;SDS011;51097;51.984;5.650;2023-04-06T05:13:04;16.20;;;12.23;;
44822;SDS011;51097;51.984;5.650;2023-04-06T05:15:29;20.42;;;13.30;;
44822;SDS011;51097;51.984;5.650;2023-04-06T05:17:55;19.27;;;13.35;;
44822;SDS011;51097;51.984;5.650;2023-04-06T05:20:21;17.48;;;13.05;;
44822;SDS011;51097;51.984;5.650;2023-04-06T05:22:46;19.92;;;12.90;;
44822;SDS011;51097;51.984;5.650;2023-04-06T05:25:12;20.75;;;13.07;;
44822;SDS011;51097;51.984;5.650;2023-04-06T05:27:38;21.20;;;13.18;;
44822;SDS011;51097;51.984;5.650;2023-04-06T05:30:05;18.60;;;13.32;;
44822;SDS011;51097;51.984;5.650;2023-04-06T05:32:31;19.25;;;12.63;;
44822;SDS011;51097;51.984;5.650;2023-04-06T05:34:59;20.38;;;13.88;;
44822;SDS011;51097;51.984;5.650;2023-04-06T05:37:25;18.25;;;13.23;;
44822;SDS011;51097;51.984;5.650;2023-04-06T05:39:50;18.58;;;13.77;;
44822;SDS011;51097;51.984;5.650;2023-04-06T05:42:16;19.45;;;13.32;;
44822;SDS011;51097;51.984;5.650;2023-04-06T05:44:41;20.63;;;13.75;;
44822;SDS011;51097;51.984;5.650;2023-04-06T05:47:07;23.25;;;15.70;;
44822;SDS011;51097;51.984;5.650;2023-04-06T05:49:33;24.00;;;14.63;;
44822;SDS011;51097;51.984;5.650;2023-04-06T05:51:59;20.88;;;14.15;;
44822;SDS011;51097;51.984;5.650;2023-04-06T05:54:25;23.67;;;14.55;;
44822;SDS011;51097;51.984;5.650;2023-04-06T05:56:51;23.35;;;14.25;;
44822;SDS011;51097;51.984;5.650;2023-04-06T05:59:16;22.55;;;14.43;;
44822;SDS011;51097;51.984;5.650;2023-04-06T06:01:44;23.90;;;14.40;;
44822;SDS011;51097;51.984;5.650;2023-04-06T06:04:09;24.20;;;14.52;;
44822;SDS011;51097;51.984;5.650;2023-04-06T06:06:35;22.55;;;13.95;;
44822;SDS011;51097;51.984;5.650;2023-04-06T06:09:01;19.77;;;14.57;;
44822;SDS011;51097;51.984;5.650;2023-04-06T06:11:28;22.70;;;15.30;;
44822;SDS011;51097;51.984;5.650;2023-04-06T06:13:55;23.15;;;15.05;;
44822;SDS011;51097;51.984;5.650;2023-04-06T06:16:21;23.25;;;16.10;;
44822;SDS011;51097;51.984;5.650;2023-04-06T06:18:46;21.33;;;14.93;;
44822;SDS011;51097;51.984;5.650;2023-04-06T06:21:12;23.30;;;14.65;;
44822;SDS011;51097;51.984;5.650;2023-04-06T06:23:38;20.95;;;14.73;;
44822;SDS011;51097;51.984;5.650;2023-04-06T06:26:04;25.65;;;15.18;;
44822;SDS011;51097;51.984;5.650;2023-04-06T06:28:30;22.23;;;15.52;;
44822;SDS011;51097;51.984;5.650;2023-04-06T06:30:55;22.75;;;15.98;;
44822;SDS011;51097;51.984;5.650;2023-04-06T06:33:21;19.25;;;14.95;;
44822;SDS011;51097;51.984;5.650;2023-04-06T06:35:47;24.63;;;16.00;;
44822;SDS011;51097;51.984;5.650;2023-04-06T06:38:13;25.90;;;15.73;;
44822;SDS011;51097;51.984;5.650;2023-04-06T06:40:39;24.83;;;15.82;;
44822;SDS011;51097;51.984;5.650;2023-04-06T06:43:05;27.98;;;16.45;;
44822;SDS011;51097;51.984;5.650;2023-04-06T06:45:31;27.13;;;16.77;;
44822;SDS011;51097;51.984;5.650;2023-04-06T06:47:56;26.52;;;15.73;;
44822;SDS011;51097;51.984;5.650;2023-04-06T06:50:22;25.73;;;16.55;;
44822;SDS011;51097;51.984;5.650;2023-04-06T06:52:47;28.38;;;17.02;;
44822;SDS011;51097;51.984;5.650;2023-04-06T06:55:13;21.67;;;15.15;;
44822;SDS011;51097;51.984;5.650;2023-04-06T06:57:40;22.90;;;15.15;;
44822;SDS011;51097;51.984;5.650;2023-04-06T07:00:07;21.73;;;15.60;;
44822;SDS011;51097;51.984;5.650;2023-04-06T07:02:34;27.95;;;16.15;;
44822;SDS011;51097;51.984;5.650;2023-04-06T07:05:00;24.98;;;15.43;;
44822;SDS011;51097;51.984;5.650;2023-04-06T07:07:26;29.25;;;16.35;;
44822;SDS011;51097;51.984;5.650;2023-04-06T07:09:52;27.52;;;16.38;;
44822;SDS011;51097;51.984;5.650;2023-04-06T07:12:17;27.00;;;16.45;;
44822;SDS011;51097;51.984;5.650;2023-04-06T07:14:43;24.20;;;16.25;;
44822;SDS011;51097;51.984;5.650;2023-04-06T07:17:09;25.60;;;15.48;;
44822;SDS011;51097;51.984;5.650;2023-04-06T07:19:35;27.52;;;18.10;;
44822;SDS011;51097;51.984;5.650;2023-04-06T07:22:00;25.15;;;16.08;;
44822;SDS011;51097;51.984;5.650;2023-04-06T07:24:27;25.67;;;17.73;;
44822;SDS011;51097;51.984;5.650;2023-04-06T07:26:53;25.88;;;17.05;;
44822;SDS011;51097;51.984;5.650;2023-04-06T07:29:18;26.33;;;17.83;;
44822;SDS011;51097;51.984;5.650;2023-04-06T07:31:44;20.67;;;16.27;;
44822;SDS011;51097;51.984;5.650;2023-04-06T07:34:09;25.15;;;15.45;;
44822;SDS011;51097;51.984;5.650;2023-04-06T07:36:35;25.05;;;17.80;;
44822;SDS011;51097;51.984;5.650;2023-04-06T07:39:01;25.67;;;16.33;;
44822;SDS011;51097;51.984;5.650;2023-04-06T07:41:26;23.85;;;16.67;;
44822;SDS011;51097;51.984;5.650;2023-04-06T07:43:52;24.58;;;16.80;;
44822;SDS011;51097;51.984;5.650;2023-04-06T07:46:17;22.90;;;17.65;;
44822;SDS011;51097;51.984;5.650;2023-04-06T07:48:43;29.27;;;17.48;;
44822;SDS011;51097;51.984;5.650;2023-04-06T07:51:09;25.85;;;16.33;;
44822;SDS011;51097;51.984;5.650;2023-04-06T07:53:39;26.38;;;17.00;;
44822;SDS011;51097;51.984;5.650;2023-04-06T07:56:04;22.70;;;16.90;;
44822;SDS011;51097;51.984;5.650;2023-04-06T07:58:30;32.45;;;18.90;;
44822;SDS011;51097;51.984;5.650;2023-04-06T08:00:56;25.85;;;18.50;;
44822;SDS011;51097;51.984;5.650;2023-04-06T08:03:22;28.02;;;17.60;;
44822;SDS011;51097;51.984;5.650;2023-04-06T08:05:50;27.15;;;18.17;;
44822;SDS011;51097;51.984;5.650;2023-04-06T08:08:17;25.63;;;18.58;;
44822;SDS011;51097;51.984;5.650;2023-04-06T08:10:43;24.83;;;17.75;;
44822;SDS011;51097;51.984;5.650;2023-04-06T08:13:08;25.48;;;17.40;;
44822;SDS011;51097;51.984;5.650;2023-04-06T08:15:34;26.80;;;18.63;;
44822;SDS011;51097;51.984;5.650;2023-04-06T08:17:59;25.60;;;17.98;;
44822;SDS011;51097;51.984;5.650;2023-04-06T08:20:25;26.20;;;17.95;;
44822;SDS011;51097;51.984;5.650;2023-04-06T08:22:51;25.52;;;17.02;;
44822;SDS011;51097;51.984;5.650;2023-04-06T08:25:16;23.73;;;17.23;;
44822;SDS011;51097;51.984;5.650;2023-04-06T08:27:42;26.35;;;18.45;;
44822;SDS011;51097;51.984;5.650;2023-04-06T08:30:07;27.23;;;18.70;;
44822;SDS011;51097;51.984;5.650;2023-04-06T08:32:33;28.88;;;19.00;;
44822;SDS011;51097;51.984;5.650;2023-04-06T08:34:59;27.55;;;18.00;;
44822;SDS011;51097;51.984;5.650;2023-04-06T08:37:25;28.23;;;18.42;;
44822;SDS011;51097;51.984;5.650;2023-04-06T08:39:50;24.88;;;17.65;;
44822;SDS011;51097;51.984;5.650;2023-04-06T08:42:18;25.40;;;18.67;;
44822;SDS011;51097;51.984;5.650;2023-04-06T08:44:45;31.27;;;18.55;;
44822;SDS011;51097;51.984;5.650;2023-04-06T08:47:13;28.40;;;20.13;;
44822;SDS011;51097;51.984;5.650;2023-04-06T08:49:39;29.83;;;19.17;;
44822;SDS011;51097;51.984;5.650;2023-04-06T08:52:07;27.48;;;20.10;;
44822;SDS011;51097;51.984;5.650;2023-04-06T08:54:35;33.67;;;19.83;;
44822;SDS011;51097;51.984;5.650;2023-04-06T08:57:01;29.52;;;19.73;;
44822;SDS011;51097;51.984;5.650;2023-04-06T08:59:28;35.97;;;19.73;;
44822;SDS011;51097;51.984;5.650;2023-04-06T09:01:54;34.88;;;19.58;;
44822;SDS011;51097;51.984;5.650;2023-04-06T09:04:20;29.67;;;19.63;;
44822;SDS011;51097;51.984;5.650;2023-04-06T09:06:46;29.75;;;19.38;;
44822;SDS011;51097;51.984;5.650;2023-04-06T09:09:12;40.85;;;22.42;;
44822;SDS011;51097;51.984;5.650;2023-04-06T09:11:47;36.38;;;23.02;;
44822;SDS011;51097;51.984;5.650;2023-04-06T09:14:15;27.63;;;20.77;;
44822;SDS011;51097;51.984;5.650;2023-04-06T09:16:42;52.28;;;26.25;;
44822;SDS011;51097;51.984;5.650;2023-04-06T09:19:09;32.75;;;20.98;;
44822;SDS011;51097;51.984;5.650;2023-04-06T09:21:35;35.67;;;21.40;;
44822;SDS011;51097;51.984;5.650;2023-04-06T09:24:01;29.30;;;20.40;;
44822;SDS011;51097;51.984;5.650;2023-04-06T09:26:28;32.83;;;20.92;;
44822;SDS011;51097;51.984;5.650;2023-04-06T09:28:54;28.83;;;20.75;;
44822;SDS011;51097;51.984;5.650;2023-04-06T09:31:25;30.98;;;21.58;;
44822;SDS011;51097;51.984;5.650;2023-04-06T09:33:52;31.25;;;20.50;;
44822;SDS011;51097;51.984;5.650;2023-04-06T09:36:19;30.73;;;20.95;;
44822;SDS011;51097;51.984;5.650;2023-04-06T09:38:55;32.95;;;21.10;;
44822;SDS011;51097;51.984;5.650;2023-04-06T09:41:31;29.13;;;20.85;;
44822;SDS011;51097;51.984;5.650;2023-04-06T09:44:02;33.25;;;22.50;;
44822;SDS011;51097;51.984;5.650;2023-04-06T09:46:35;31.17;;;20.67;;
44822;SDS011;51097;51.984;5.650;2023-04-06T09:51:38;27.77;;;20.55;;
44822;SDS011;51097;51.984;5.650;2023-04-06T09:54:04;23.42;;;19.33;;
44822;SDS011;51097;51.984;5.650;2023-04-06T09:56:39;30.77;;;20.90;;
44822;SDS011;51097;51.984;5.650;2023-04-06T09:59:21;46.10;;;23.92;;
44822;SDS011;51097;51.984;5.650;2023-04-06T10:02:08;27.05;;;21.02;;
44822;SDS011;51097;51.984;5.650;2023-04-06T10:04:58;30.02;;;19.98;;
44822;SDS011;51097;51.984;5.650;2023-04-06T10:07:30;29.05;;;19.13;;
44822;SDS011;51097;51.984;5.650;2023-04-06T10:09:56;29.55;;;19.52;;
44822;SDS011;51097;51.984;5.650;2023-04-06T10:12:25;30.70;;;20.50;;
44822;SDS011;51097;51.984;5.650;2023-04-06T10:14:51;28.77;;;18.55;;
44822;SDS011;51097;51.984;5.650;2023-04-06T10:17:16;33.17;;;18.98;;
44822;SDS011;51097;51.984;5.650;2023-04-06T10:22:15;29.38;;;20.35;;
44822;SDS011;51097;51.984;5.650;2023-04-06T10:24:49;27.33;;;21.10;;
44822;SDS011;51097;51.984;5.650;2023-04-06T10:27:14;28.73;;;18.42;;
44822;SDS011;51097;51.984;5.650;2023-04-06T10:29:41;26.50;;;19.13;;
44822;SDS011;51097;51.984;5.650;2023-04-06T10:32:10;26.63;;;19.02;;
44822;SDS011;51097;51.984;5.650;2023-04-06T10:34:36;27.23;;;19.17;;
44822;SDS011;51097;51.984;5.650;2023-04-06T10:37:12;22.48;;;17.35;;
44822;SDS011;51097;51.984;5.650;2023-04-06T10:39:49;27.40;;;17.92;;
44822;SDS011;51097;51.984;5.650;2023-04-06T10:42:23;22.00;;;17.42;;
44822;SDS011;51097;51.984;5.650;2023-04-06T10:44:50;24.92;;;17.60;;
44822;SDS011;51097;51.984;5.650;2023-04-06T10:47:16;23.27;;;17.00;;
44822;SDS011;51097;51.984;5.650;2023-04-06T10:49:45;22.05;;;15.50;;
44822;SDS011;51097;51.984;5.650;2023-04-06T10:52:11;20.52;;;16.15;;
44822;SDS011;51097;51.984;5.650;2023-04-06T10:54:40;22.77;;;15.48;;
44822;SDS011;51097;51.984;5.650;2023-04-06T10:57:09;20.75;;;15.43;;
44822;SDS011;51097;51.984;5.650;2023-04-06T10:59:34;22.35;;;15.13;;
44822;SDS011;51097;51.984;5.650;2023-04-06T11:02:00;18.83;;;14.75;;
44822;SDS011;51097;51.984;5.650;2023-04-06T11:04:26;21.17;;;13.93;;
44822;SDS011;51097;51.984;5.650;2023-04-06T11:06:51;19.63;;;14.13;;
44822;SDS011;51097;51.984;5.650;2023-04-06T11:09:26;18.67;;;12.75;;
44822;SDS011;51097;51.984;5.650;2023-04-06T11:11:53;15.02;;;10.93;;
44822;SDS011;51097;51.984;5.650;2023-04-06T11:14:20;13.80;;;10.82;;
44822;SDS011;51097;51.984;5.650;2023-04-06T11:16:46;18.52;;;11.10;;
44822;SDS011;51097;51.984;5.650;2023-04-06T11:19:15;14.00;;;10.25;;
44822;SDS011;51097;51.984;5.650;2023-04-06T11:21:46;16.88;;;10.70;;
44822;SDS011;51097;51.984;5.650;2023-04-06T11:24:14;12.93;;;10.52;;
44822;SDS011;51097;51.984;5.650;2023-04-06T11:26:51;14.15;;;10.65;;
44822;SDS011;51097;51.984;5.650;2023-04-06T11:29:19;15.00;;;11.27;;
44822;SDS011;51097;51.984;5.650;2023-04-06T11:31:50;14.93;;;10.45;;
44822;SDS011;51097;51.984;5.650;2023-04-06T11:34:18;13.85;;;10.18;;
44822;SDS011;51097;51.984;5.650;2023-04-06T11:36:45;15.93;;;11.13;;
44822;SDS011;51097;51.984;5.650;2023-04-06T11:39:12;13.25;;;9.18;;
44822;SDS011;51097;51.984;5.650;2023-04-06T11:44:12;11.75;;;9.38;;
44822;SDS011;51097;51.984;5.650;2023-04-06T11:46:37;14.48;;;10.52;;
44822;SDS011;51097;51.984;5.650;2023-04-06T11:49:03;15.93;;;9.68;;
44822;SDS011;51097;51.984;5.650;2023-04-06T11:51:28;14.98;;;11.40;;
44822;SDS011;51097;51.984;5.650;2023-04-06T11:53:54;13.15;;;9.85;;
44822;SDS011;51097;51.984;5.650;2023-04-06T11:56:24;11.32;;;8.90;;
44822;SDS011;51097;51.984;5.650;2023-04-06T11:58:54;13.82;;;10.05;;
44822;SDS011;51097;51.984;5.650;2023-04-06T12:01:21;11.35;;;8.77;;
44822;SDS011;51097;51.984;5.650;2023-04-06T12:03:47;14.05;;;9.32;;
44822;SDS011;51097;51.984;5.650;2023-04-06T12:06:14;13.63;;;9.32;;
44822;SDS011;51097;51.984;5.650;2023-04-06T12:08:40;12.43;;;9.15;;
44822;SDS011;51097;51.984;5.650;2023-04-06T12:11:06;11.90;;;8.75;;
44822;SDS011;51097;51.984;5.650;2023-04-06T12:13:31;12.80;;;8.48;;
44822;SDS011;51097;51.984;5.650;2023-04-06T12:15:57;11.02;;;7.65;;
44822;SDS011;51097;51.984;5.650;2023-04-06T12:18:22;12.85;;;7.68;;
44822;SDS011;51097;51.984;5.650;2023-04-06T12:20:48;12.68;;;7.50;;
44822;SDS011;51097;51.984;5.650;2023-04-06T12:23:14;10.10;;;7.63;;
44822;SDS011;51097;51.984;5.650;2023-04-06T12:25:40;10.20;;;7.07;;
44822;SDS011;51097;51.984;5.650;2023-04-06T12:28:07;11.02;;;7.45;;
44822;SDS011;51097;51.984;5.650;2023-04-06T12:30:34;13.77;;;7.60;;
44822;SDS011;51097;51.984;5.650;2023-04-06T12:33:00;12.60;;;8.20;;
44822;SDS011;51097;51.984;5.650;2023-04-06T12:35:26;11.57;;;6.88;;
44822;SDS011;51097;51.984;5.650;2023-04-06T12:37:52;11.25;;;7.25;;
44822;SDS011;51097;51.984;5.650;2023-04-06T12:40:17;11.25;;;7.90;;
44822;SDS011;51097;51.984;5.650;2023-04-06T12:42:43;10.02;;;7.45;;
44822;SDS011;51097;51.984;5.650;2023-04-06T12:45:10;8.68;;;7.00;;
44822;SDS011;51097;51.984;5.650;2023-04-06T12:47:36;9.93;;;7.25;;
44822;SDS011;51097;51.984;5.650;2023-04-06T12:50:02;10.52;;;7.53;;
44822;SDS011;51097;51.984;5.650;2023-04-06T12:52:30;9.18;;;7.43;;
44822;SDS011;51097;51.984;5.650;2023-04-06T12:54:57;11.07;;;7.95;;
44822;SDS011;51097;51.984;5.650;2023-04-06T12:57:24;11.30;;;8.45;;
44822;SDS011;51097;51.984;5.650;2023-04-06T12:59:50;11.32;;;7.28;;
44822;SDS011;51097;51.984;5.650;2023-04-06T13:02:16;11.90;;;8.18;;
44822;SDS011;51097;51.984;5.650;2023-04-06T13:04:42;11.10;;;7.57;;
44822;SDS011;51097;51.984;5.650;2023-04-06T13:07:07;14.43;;;7.65;;
44822;SDS011;51097;51.984;5.650;2023-04-06T13:09:33;10.85;;;7.68;;
44822;SDS011;51097;51.984;5.650;2023-04-06T13:11:58;11.45;;;8.40;;
44822;SDS011;51097;51.984;5.650;2023-04-06T13:14:24;11.75;;;7.40;;
44822;SDS011;51097;51.984;5.650;2023-04-06T13:16:50;9.85;;;8.57;;
44822;SDS011;51097;51.984;5.650;2023-04-06T13:19:16;11.32;;;7.93;;
44822;SDS011;51097;51.984;5.650;2023-04-06T13:21:43;12.77;;;8.50;;
44822;SDS011;51097;51.984;5.650;2023-04-06T13:24:08;12.05;;;8.23;;
44822;SDS011;51097;51.984;5.650;2023-04-06T13:26:35;12.18;;;8.95;;
44822;SDS011;51097;51.984;5.650;2023-04-06T13:29:01;10.60;;;7.72;;
44822;SDS011;51097;51.984;5.650;2023-04-06T13:31:27;12.00;;;8.80;;
44822;SDS011;51097;51.984;5.650;2023-04-06T13:33:53;11.57;;;8.40;;
44822;SDS011;51097;51.984;5.650;2023-04-06T13:36:19;15.75;;;9.23;;
44822;SDS011;51097;51.984;5.650;2023-04-06T13:38:44;11.75;;;8.50;;
44822;SDS011;51097;51.984;5.650;2023-04-06T13:41:17;12.13;;;8.65;;
44822;SDS011;51097;51.984;5.650;2023-04-06T13:43:46;11.85;;;8.43;;
44822;SDS011;51097;51.984;5.650;2023-04-06T13:46:12;13.40;;;8.65;;
44822;SDS011;51097;51.984;5.650;2023-04-06T13:48:37;10.60;;;8.15;;
44822;SDS011;51097;51.984;5.650;2023-04-06T13:51:09;11.63;;;8.55;;
44822;SDS011;51097;51.984;5.650;2023-04-06T13:53:36;11.63;;;9.25;;
44822;SDS011;51097;51.984;5.650;2023-04-06T13:56:01;9.63;;;8.02;;
44822;SDS011;51097;51.984;5.650;2023-04-06T13:58:27;13.80;;;9.30;;
44822;SDS011;51097;51.984;5.650;2023-04-06T14:00:53;14.25;;;9.13;;
44822;SDS011;51097;51.984;5.650;2023-04-06T14:03:18;10.07;;;8.77;;
44822;SDS011;51097;51.984;5.650;2023-04-06T14:05:44;13.55;;;9.63;;
44822;SDS011;51097;51.984;5.650;2023-04-06T14:08:10;14.30;;;10.23;;
44822;SDS011;51097;51.984;5.650;2023-04-06T14:10:39;13.90;;;10.18;;
44822;SDS011;51097;51.984;5.650;2023-04-06T14:13:06;18.55;;;10.20;;
44822;SDS011;51097;51.984;5.650;2023-04-06T14:15:31;13.70;;;9.05;;
44822;SDS011;51097;51.984;5.650;2023-04-06T14:17:57;13.25;;;10.15;;
44822;SDS011;51097;51.984;5.650;2023-04-06T14:20:22;13.73;;;9.93;;
44822;SDS011;51097;51.984;5.650;2023-04-06T14:22:48;18.05;;;11.40;;
44822;SDS011;51097;51.984;5.650;2023-04-06T14:25:16;14.35;;;11.15;;
44822;SDS011;51097;51.984;5.650;2023-04-06T14:27:42;16.63;;;10.10;;
44822;SDS011;51097;51.984;5.650;2023-04-06T14:30:08;17.95;;;10.35;;